Latest Coastal Weather Observations for Orbost

IDV60701

Issued at 5:41 am EST Wednesday 25 May 2016 (issued every 10 minutes, with the page automatically refreshed every 10 minutes)

About coastal observations | Map of coastal stations | Coastal observations for VIC | Marine services | Other Formats
Station Details ID: 084145 Name: ORBOST Lat: -37.69 Lon: 148.47 Height: 62.65 m
Data from the previous 72 hours. | See also: Recent months at Orbost
Date/Time
EST
Temp

°C
Wind Pressure Rain
since 9am
mm
Weather Cloud Vis
km
Sea
Height
m
Swell
Dir
 
Speed
knots
Gust
knots
hPa Trend Height
m
Period
s
Dir
25/05:30am 6.3 NNW 4 5 1016.8 - 1.2 - - - - - - -
25/05:00am 6.7 NNW 2 3 1016.5 - 1.2 - - - - - - -
25/04:30am 7.0 N 3 4 1016.3 - 1.2 - - - - - - -
25/04:00am 8.0 N 5 6 1016.1 - 1.2 - - - - - - -
25/03:30am 8.3 N 5 7 1016.3 - 1.2 - - - - - - -
25/03:00am 8.7 N 4 6 1016.4 - 1.2 - - - - - - -
25/02:30am 8.5 N 3 5 1016.6 - 1.2 - - - - - - -
25/02:00am 8.9 NW 3 4 1016.8 - 1.2 - - - - - - -
25/01:30am 9.2 NNW 3 5 1016.8 - 1.2 - - - - - - -
25/01:00am 10.1 NW 4 7 1017.1 - 1.2 - - - - - - -
25/12:30am 10.7 NW 4 6 1017.4 - 1.2 - - - - - - -
25/12:00am 10.8 NW 4 6 1017.8 - 1.2 - - - - - - -
 
Date/Time
EST
Temp

°C
Wind Pressure Rain
since 9am
mm
Weather Cloud Vis
km
Sea
Height
m
Swell
Dir
 
Speed
knots
Gust
knots
hPa Trend Height
m
Period
s
Dir
24/11:30pm 10.7 NW 4 7 1018.1 - 1.2 - - - - - - -
24/11:00pm 10.5 NNW 5 7 1018.5 - 1.2 - - - - - - -
24/10:30pm 10.2 NW 4 7 1018.6 - 1.2 - - - - - - -
24/10:00pm 9.9 NW 3 6 1018.7 - 1.2 - - - - - - -
24/09:30pm 10.3 NW 3 6 1018.7 - 1.2 - - - - - - -
24/09:00pm 10.7 NW 3 5 1018.8 - 1.2 - - - - - - -
24/08:30pm 10.8 NW 3 5 1018.6 - 1.2 - - - - - - -
24/08:00pm 11.7 WNW 3 5 1018.4 - 1.2 - - - - - - -
24/07:30pm 11.6 WNW 4 9 1018.3 - 1.2 - - - - - - -
24/07:00pm 12.5 W 6 10 1018.0 - 1.2 - - - - - - -
24/06:30pm 12.9 WSW 9 16 1018.0 - 1.2 - - - - - - -
24/06:00pm 12.9 WSW 7 16 1017.9 - 1.2 - - - - - - -
24/05:30pm 12.3 WSW 6 9 1017.4 - 1.2 - - - - - - -
24/05:00pm 12.8 WSW 9 15 1016.9 - 1.2 - - - - - - -
24/04:30pm 13.6 WSW 12 18 1016.8 - 1.2 - - - - - - -
24/04:00pm 14.5 SW 11 19 1016.8 - 1.2 - - - - - - -
24/03:30pm 15.1 W 12 21 1016.2 - 1.2 - - - - - - -
24/03:00pm 15.4 WSW 12 18 1016.1 - 1.2 - - - - - - -
24/02:30pm 14.9 WSW 12 19 1016.0 - 1.2 - - - - - - -
24/02:00pm 14.4 WSW 12 20 1016.0 - 1.2 - - - - - - -
24/01:30pm 14.2 WSW 13 21 1016.0 - 1.2 - - - - - - -
24/01:00pm 13.8 WSW 10 15 1016.3 - 1.2 - - - - - - -
24/12:30pm 13.6 W 10 16 1016.5 - 1.2 - - - - - - -
24/12:00pm 12.8 W 10 17 1016.9 - 1.2 - - - - - - -
24/11:30am 11.4 WNW 9 15 1017.0 - 1.2 - - - - - - -
24/11:00am 10.7 WNW 9 14 1017.5 - 1.2 - - - - - - -
24/10:30am 10.0 W 11 25 1018.3 - 0.8 - - - - - - -
24/10:00am 11.4 W 10 19 1017.9 - 0.0 - - - - - - -
24/09:30am 12.4 W 8 17 1017.5 - 0.0 - - - - - - -
24/09:00am 12.2 WNW 7 10 1017.1 - 0.6 - - - - - - -
24/08:30am 11.5 WNW 7 12 1017.1 - 0.6 - - - - - - -
24/08:00am 10.7 NNW 6 8 1017.3 - 0.6 - - - - - - -
24/07:30am 10.0 WNW 4 6 1017.1 - 0.6 - - - - - - -
24/07:00am 10.3 NW 6 10 1016.7 - 0.6 - - - - - - -
24/06:30am 10.3 NW 5 7 1016.3 - 0.6 - - - - - - -
24/06:00am 9.4 NNW 5 7 1016.1 - 0.6 - - - - - - -
24/05:30am 8.7 NNW 4 6 1016.2 - 0.6 - - - - - - -
24/05:00am 9.6 NW 5 7 1016.4 - 0.6 - - - - - - -
24/04:30am 10.0 WNW 5 9 1016.5 - 0.6 - - - - - - -
24/04:00am 10.3 NW 4 6 1016.6 - 0.4 - - - - - - -
24/03:30am 9.6 NW 5 7 1016.6 - 0.4 - - - - - - -
24/03:00am 9.4 NW 5 9 1016.7 - 0.4 - - - - - - -
24/02:30am 9.6 NW 5 7 1016.9 - 0.4 - - - - - - -
24/02:00am 9.9 NW 5 7 1016.8 - 0.4 - - - - - - -
24/01:30am 9.8 NNW 4 7 1016.9 - 0.4 - - - - - - -
24/01:00am 9.8 NNW 5 9 1016.9 - 0.4 - - - - - - -
24/12:30am 9.6 NW 4 7 1017.2 - 0.4 - - - - - - -
24/12:00am 10.7 WNW 6 8 1017.5 - 0.4 - - - - - - -
 
Date/Time
EST
Temp

°C
Wind Pressure Rain
since 9am
mm
Weather Cloud Vis
km
Sea
Height
m
Swell
Dir
 
Speed
knots
Gust
knots
hPa Trend Height
m
Period
s
Dir
23/11:30pm 10.1 NW 6 11 1017.5 - 0.4 - - - - - - -
23/11:00pm 9.3 NW 4 7 1017.5 - 0.4 - - - - - - -
23/10:30pm 9.9 NW 6 11 1017.6 - 0.4 - - - - - - -
23/10:00pm 9.5 NW 6 9 1017.7 - 0.4 - - - - - - -
23/09:30pm 9.7 WNW 6 10 1017.8 - 0.4 - - - - - - -
23/09:00pm 10.0 WNW 8 14 1017.9 - 0.4 - - - - - - -
23/08:30pm 10.3 W 9 13 1017.7 - 0.4 - - - - - - -
23/08:00pm 11.1 WSW 14 23 1017.4 - 0.4 - - - - - - -
23/07:56pm 11.4 WSW 15 27 1017.4 - 0.4 - - - - - - -
23/07:30pm 12.0 WSW 11 18 1016.9 - 0.4 - - - - - - -
23/07:00pm 12.6 WSW 9 24 1016.5 - 0.4 - - - - - - -
23/06:30pm 12.1 WSW 5 10 1015.9 - 0.4 - - - - - - -
23/06:00pm 11.9 W 5 9 1015.6 - 0.4 - - - - - - -
23/05:30pm 13.0 WSW 6 12 1015.1 - 0.4 - - - - - - -
23/05:00pm 13.4 WSW 10 16 1014.9 - 0.4 - - - - - - -
23/04:30pm 14.6 W 12 18 1014.3 - 0.4 - - - - - - -
23/04:00pm 15.2 WSW 14 24 1014.0 - 0.4 - - - - - - -
23/03:30pm 15.7 WSW 14 22 1013.7 - 0.4 - - - - - - -
23/03:00pm 16.3 WSW 14 22 1013.3 - 0.4 - - - - - - -
23/02:30pm 16.6 WSW 13 22 1013.1 - 0.4 - - - - - - -
23/02:00pm 16.4 WSW 12 19 1013.1 - 0.4 - - - - - - -
23/01:30pm 16.2 WSW 13 19 1013.3 - 0.4 - - - - - - -
23/01:00pm 16.0 WSW 13 19 1013.4 - 0.4 - - - - - - -
23/12:30pm 16.4 W 13 22 1013.1 - 0.4 - - - - - - -
23/12:06pm 16.3 W 15 26 1013.2 - 0.4 - - - - - - -
23/12:00pm 16.1 W 13 21 1013.3 - 0.4 Recent precip. - - - - - -
23/11:30am 14.5 W 11 19 1013.2 - 0.4 - - - - - - -
23/11:00am 14.8 SW 10 19 1012.8 - 0.0 - - - - - - -
23/10:30am 15.9 SSW 5 8 1013.1 - 0.0 - - - - - - -
23/10:00am 15.2 SW 6 9 1013.0 - 0.0 - - - - - - -
23/09:30am 14.6 NNW 4 6 1012.4 - 0.0 - - - - - - -
23/09:00am 13.4 NW 1 2 1012.3 - 3.4 Recent precip. - - - - - -
23/08:30am 12.5 NNW 3 5 1012.5 - 3.4 - - - - - - -
23/08:00am 12.4 W 4 7 1012.4 - 3.2 - - - - - - -
23/07:30am 12.7 WSW 6 11 1011.8 - 0.2 - - - - - - -
23/07:00am 13.7 WSW 14 25 1011.7 - 0.2 - - - - - - -
23/06:30am 15.7 WSW 17 34 1010.3 - 0.2 - - - - - - -
23/06:24am 18.0 W 8 31 1010.0 - 0.2 - - - - - - -
23/06:00am 20.7 NW 7 11 1008.3 - 0.2 - - - - - - -
23/05:30am 20.7 NW 7 13 1008.6 - 0.2 - - - - - - -
23/05:00am 18.6 NNW 3 5 1008.8 - 0.2 - - - - - - -
23/04:30am 19.2 N 4 7 1009.0 - 0.2 - - - - - - -
23/04:00am 17.8 NW 4 9 1008.9 - 0.2 - - - - - - -
23/03:30am 14.2 WNW 1 4 1009.3 - 0.2 - - - - - - -
23/03:00am 13.7 NW 1 3 1009.6 - 0.2 - - - - - - -
23/02:30am 15.1 N 4 5 1010.1 - 0.2 - - - - - - -
23/02:00am 13.4 N 2 3 1010.5 - 0.2 - - - - - - -
23/01:30am 15.2 CALM 0 0 1010.7 - 0.2 - - - - - - -
23/01:00am 14.1 CALM 0 0 1011.2 - 0.2 - - - - - - -
23/12:30am 13.3 CALM 0 2 1011.6 - 0.2 - - - - - - -
23/12:00am 12.3 NW 2 5 1012.4 - 0.2 - - - - - - -
 
Date/Time
EST
Temp

°C
Wind Pressure Rain
since 9am
mm
Weather Cloud Vis
km
Sea
Height
m
Swell
Dir
 
Speed
knots
Gust
knots
hPa Trend Height
m
Period
s
Dir
22/11:30pm 16.3 NNE 3 8 1012.7 - 0.2 - - - - - - -
22/11:00pm 17.7 NNE 3 7 1013.0 - 0.2 - - - - - - -
22/10:30pm 16.3 NNE 4 6 1013.5 - 0.2 - - - - - - -
22/10:00pm 13.1 N 4 6 1014.1 - 0.2 - - - - - - -
22/09:30pm 11.5 W 2 4 1014.5 - 0.2 - - - - - - -
22/09:00pm 14.2 CALM 0 3 1014.3 - 0.2 - - - - - - -
22/08:30pm 15.5 NE 4 5 1014.9 - 0.2 - - - - - - -
22/08:00pm 15.2 NW 1 3 1015.5 - 0.2 - - - - - - -
22/07:30pm 15.6 WNW 1 2 1015.5 - 0.2 - - - - - - -
22/07:00pm 14.5 SW 1 2 1015.4 - 0.2 - - - - - - -
22/06:30pm 15.3 CALM 0 3 1015.3 - 0.2 - - - - - - -
22/06:00pm 16.6 NW 2 4 1015.1 - 0.2 - - - - - - -
22/05:30pm 16.6 CALM 0 0 1014.4 - 0.2 - - - - - - -
22/05:00pm 16.4 N 1 2 1014.1 - 0.2 - - - - - - -
22/04:30pm 18.2 E 2 3 1014.3 - 0.2 - - - - - - -
22/04:00pm 19.5 ESE 1 2 1014.5 - 0.2 - - - - - - -
22/03:30pm 20.4 CALM 0 0 1015.1 - 0.2 - - - - - - -
22/03:00pm 20.0 ESE 3 4 1015.4 - 0.2 - - - - - - -
22/02:30pm 20.9 ESE 3 5 1015.6 - 0.2 - - - - - - -
22/02:00pm 21.3 SE 2 3 1015.9 - 0.2 - - - - - - -
22/01:30pm 21.7 ESE 2 4 1016.3 - 0.2 - - - - - - -
22/01:00pm 21.4 SE 2 3 1016.7 - 0.2 - - - - - - -
22/12:30pm 22.0 SW 1 2 1017.1 - 0.2 - - - - - - -
22/12:00pm 21.1 WSW 2 3 1017.6 - 0.2 Recent precip. - - - - - -
22/11:30am 20.6 SW 2 4 1018.1 - 0.2 - - - - - - -
22/11:00am 19.4 WSW 4 5 1018.7 - 0.0 - - - - - - -
22/10:30am 17.9 WNW 1 3 1018.8 - 0.0 - - - - - - -
22/10:00am 16.4 NW 2 3 1019.3 - 0.0 - - - - - - -
22/09:30am 14.7 CALM 0 0 1019.7 - 0.0 - - - - - - -
22/09:00am 13.9 NW 2 3 1020.0 - 0.0 - - - - - - -
22/08:30am 12.9 CALM 0 2 1020.2 - 0.0 - - - - - - -
22/08:00am 10.8 NNW 2 3 1020.3 - 0.0 - - - - - - -
22/07:30am 10.0 NNW 2 3 1020.4 - 0.0 - - - - - - -
22/07:00am 9.0 NNW 3 4 1020.3 - 0.0 - - - - - - -
22/06:30am 9.7 N 3 4 1020.1 - 0.0 - - - - - - -
22/06:00am 9.5 N 2 5 1020.1 - 0.0 - - - - - - -

Other Formats:

Comma delimited format used in spreadsheet applications
http://www.bom.gov.au/fwo/IDV60701/IDV60701.95918.axf

JavaScript Object Notation format (JSON) in row-major order
http://www.bom.gov.au/fwo/IDV60701/IDV60701.95918.json